sensor_id;sensor_type;location;lat;lon;timestamp;temperature;humidity
27306;DHT22;14792;50.886;6.468;2023-12-04T00:00:54;0.30;99.90
27306;DHT22;14792;50.886;6.468;2023-12-04T00:03:56;0.40;99.90
27306;DHT22;14792;50.886;6.468;2023-12-04T00:06:58;0.40;99.90
27306;DHT22;14792;50.886;6.468;2023-12-04T00:09:59;0.40;99.90
27306;DHT22;14792;50.886;6.468;2023-12-04T00:13:01;0.40;99.90
27306;DHT22;14792;50.886;6.468;2023-12-04T00:16:02;0.30;99.90
27306;DHT22;14792;50.886;6.468;2023-12-04T00:19:04;0.30;99.90
27306;DHT22;14792;50.886;6.468;2023-12-04T00:22:06;0.30;99.90
27306;DHT22;14792;50.886;6.468;2023-12-04T00:25:07;0.30;99.90
27306;DHT22;14792;50.886;6.468;2023-12-04T00:28:09;0.30;99.90
27306;DHT22;14792;50.886;6.468;2023-12-04T00:31:10;0.30;99.90
27306;DHT22;14792;50.886;6.468;2023-12-04T00:34:12;0.30;99.90
27306;DHT22;14792;50.886;6.468;2023-12-04T00:37:13;0.30;99.90
27306;DHT22;14792;50.886;6.468;2023-12-04T00:40:15;0.30;99.90
27306;DHT22;14792;50.886;6.468;2023-12-04T00:43:17;0.30;99.90
27306;DHT22;14792;50.886;6.468;2023-12-04T00:46:18;0.30;99.90
27306;DHT22;14792;50.886;6.468;2023-12-04T00:49:20;0.30;99.90
27306;DHT22;14792;50.886;6.468;2023-12-04T00:52:21;0.30;99.90
27306;DHT22;14792;50.886;6.468;2023-12-04T00:55:23;0.30;99.90
27306;DHT22;14792;50.886;6.468;2023-12-04T00:58:25;0.30;99.90
27306;DHT22;14792;50.886;6.468;2023-12-04T01:01:26;0.30;99.90
27306;DHT22;14792;50.886;6.468;2023-12-04T01:04:28;0.30;99.90
27306;DHT22;14792;50.886;6.468;2023-12-04T01:07:29;0.30;99.90
27306;DHT22;14792;50.886;6.468;2023-12-04T01:10:31;0.40;99.90
27306;DHT22;14792;50.886;6.468;2023-12-04T01:13:33;0.40;99.90
27306;DHT22;14792;50.886;6.468;2023-12-04T01:16:34;0.40;99.90
27306;DHT22;14792;50.886;6.468;2023-12-04T01:19:36;0.40;99.90
27306;DHT22;14792;50.886;6.468;2023-12-04T01:22:37;0.40;99.90
27306;DHT22;14792;50.886;6.468;2023-12-04T01:25:39;0.40;99.90
27306;DHT22;14792;50.886;6.468;2023-12-04T01:28:40;0.40;99.90
27306;DHT22;14792;50.886;6.468;2023-12-04T01:31:42;0.40;99.90
27306;DHT22;14792;50.886;6.468;2023-12-04T01:34:44;0.40;99.90
27306;DHT22;14792;50.886;6.468;2023-12-04T01:37:45;0.40;99.90
27306;DHT22;14792;50.886;6.468;2023-12-04T01:40:47;0.40;99.90
27306;DHT22;14792;50.886;6.468;2023-12-04T01:43:48;0.40;99.90
27306;DHT22;14792;50.886;6.468;2023-12-04T01:46:50;0.40;99.90
27306;DHT22;14792;50.886;6.468;2023-12-04T01:49:52;0.40;99.90
27306;DHT22;14792;50.886;6.468;2023-12-04T01:52:53;0.30;99.90
27306;DHT22;14792;50.886;6.468;2023-12-04T01:55:55;0.40;99.90
27306;DHT22;14792;50.886;6.468;2023-12-04T01:58:56;0.40;99.90
27306;DHT22;14792;50.886;6.468;2023-12-04T02:01:58;0.50;99.90
27306;DHT22;14792;50.886;6.468;2023-12-04T02:04:59;0.50;99.90
27306;DHT22;14792;50.886;6.468;2023-12-04T02:08:01;0.50;99.90
27306;DHT22;14792;50.886;6.468;2023-12-04T02:11:03;0.50;99.90
27306;DHT22;14792;50.886;6.468;2023-12-04T02:14:04;0.50;99.90
27306;DHT22;14792;50.886;6.468;2023-12-04T02:17:06;0.50;99.90
27306;DHT22;14792;50.886;6.468;2023-12-04T02:20:07;0.50;99.90
27306;DHT22;14792;50.886;6.468;2023-12-04T02:23:09;0.40;99.90
27306;DHT22;14792;50.886;6.468;2023-12-04T02:26:13;0.40;99.90
27306;DHT22;14792;50.886;6.468;2023-12-04T02:29:14;0.40;99.90
27306;DHT22;14792;50.886;6.468;2023-12-04T02:32:14;0.30;99.90
27306;DHT22;14792;50.886;6.468;2023-12-04T02:35:16;0.30;99.90
27306;DHT22;14792;50.886;6.468;2023-12-04T02:38:17;0.30;99.90
27306;DHT22;14792;50.886;6.468;2023-12-04T02:41:19;0.20;99.90
27306;DHT22;14792;50.886;6.468;2023-12-04T02:44:20;0.30;99.90
27306;DHT22;14792;50.886;6.468;2023-12-04T02:47:22;0.30;99.90
27306;DHT22;14792;50.886;6.468;2023-12-04T02:50:23;0.30;99.90
27306;DHT22;14792;50.886;6.468;2023-12-04T02:53:25;0.30;99.90
27306;DHT22;14792;50.886;6.468;2023-12-04T02:56:26;0.30;99.90
27306;DHT22;14792;50.886;6.468;2023-12-04T02:59:28;0.20;99.90
27306;DHT22;14792;50.886;6.468;2023-12-04T03:02:30;0.20;99.90
27306;DHT22;14792;50.886;6.468;2023-12-04T03:05:31;0.10;99.90
27306;DHT22;14792;50.886;6.468;2023-12-04T03:08:33;0.10;99.90
27306;DHT22;14792;50.886;6.468;2023-12-04T03:11:34;0.10;99.90
27306;DHT22;14792;50.886;6.468;2023-12-04T03:14:36;0.10;99.90
27306;DHT22;14792;50.886;6.468;2023-12-04T03:17:37;0.10;99.90
27306;DHT22;14792;50.886;6.468;2023-12-04T03:20:39;0.10;99.90
27306;DHT22;14792;50.886;6.468;2023-12-04T03:23:41;0.10;99.90
27306;DHT22;14792;50.886;6.468;2023-12-04T03:26:43;0.10;99.90
27306;DHT22;14792;50.886;6.468;2023-12-04T03:29:44;0.10;99.90
27306;DHT22;14792;50.886;6.468;2023-12-04T03:32:46;0.10;99.90
27306;DHT22;14792;50.886;6.468;2023-12-04T03:35:48;0.10;99.90
27306;DHT22;14792;50.886;6.468;2023-12-04T03:38:49;0.10;99.90
27306;DHT22;14792;50.886;6.468;2023-12-04T03:41:51;0.10;99.90
27306;DHT22;14792;50.886;6.468;2023-12-04T03:44:52;0.10;99.90
27306;DHT22;14792;50.886;6.468;2023-12-04T03:47:54;0.20;99.90
27306;DHT22;14792;50.886;6.468;2023-12-04T03:50:55;0.10;99.90
27306;DHT22;14792;50.886;6.468;2023-12-04T03:53:57;0.20;99.90
27306;DHT22;14792;50.886;6.468;2023-12-04T03:56:59;0.10;99.90
27306;DHT22;14792;50.886;6.468;2023-12-04T04:00:00;0.20;99.90
27306;DHT22;14792;50.886;6.468;2023-12-04T04:03:02;0.20;99.90
27306;DHT22;14792;50.886;6.468;2023-12-04T04:06:03;0.20;99.90
27306;DHT22;14792;50.886;6.468;2023-12-04T04:09:05;0.20;99.90
27306;DHT22;14792;50.886;6.468;2023-12-04T04:12:07;0.20;99.90
27306;DHT22;14792;50.886;6.468;2023-12-04T04:15:08;0.20;99.90
27306;DHT22;14792;50.886;6.468;2023-12-04T04:18:10;0.20;99.90
27306;DHT22;14792;50.886;6.468;2023-12-04T04:21:12;0.20;99.90
27306;DHT22;14792;50.886;6.468;2023-12-04T04:24:13;0.20;99.90
27306;DHT22;14792;50.886;6.468;2023-12-04T04:27:14;0.10;99.90
27306;DHT22;14792;50.886;6.468;2023-12-04T04:30:16;0.10;99.90
27306;DHT22;14792;50.886;6.468;2023-12-04T04:33:18;0.00;99.90
27306;DHT22;14792;50.886;6.468;2023-12-04T04:36:19;0.00;99.90
27306;DHT22;14792;50.886;6.468;2023-12-04T04:39:21;0.00;99.90
27306;DHT22;14792;50.886;6.468;2023-12-04T04:42:22;0.00;99.90
27306;DHT22;14792;50.886;6.468;2023-12-04T04:45:24;0.00;99.90
27306;DHT22;14792;50.886;6.468;2023-12-04T04:48:26;0.00;99.90
27306;DHT22;14792;50.886;6.468;2023-12-04T04:51:27;0.00;99.90
27306;DHT22;14792;50.886;6.468;2023-12-04T04:54:30;0.00;99.90
27306;DHT22;14792;50.886;6.468;2023-12-04T04:57:30;-0.10;99.90
27306;DHT22;14792;50.886;6.468;2023-12-04T05:00:32;-0.10;99.90
27306;DHT22;14792;50.886;6.468;2023-12-04T05:03:34;-0.10;99.90
27306;DHT22;14792;50.886;6.468;2023-12-04T05:06:35;0.10;99.90
27306;DHT22;14792;50.886;6.468;2023-12-04T05:09:37;0.00;99.90
27306;DHT22;14792;50.886;6.468;2023-12-04T05:12:38;-0.10;99.90
27306;DHT22;14792;50.886;6.468;2023-12-04T05:15:40;-0.10;99.90
27306;DHT22;14792;50.886;6.468;2023-12-04T05:18:47;-0.10;99.90
27306;DHT22;14792;50.886;6.468;2023-12-04T05:21:49;-0.20;99.90
27306;DHT22;14792;50.886;6.468;2023-12-04T05:24:50;-0.20;99.90
27306;DHT22;14792;50.886;6.468;2023-12-04T05:27:52;-0.20;99.90
27306;DHT22;14792;50.886;6.468;2023-12-04T05:30:53;-0.20;99.90
27306;DHT22;14792;50.886;6.468;2023-12-04T05:33:55;-0.20;99.90
27306;DHT22;14792;50.886;6.468;2023-12-04T05:36:57;-0.20;99.90
27306;DHT22;14792;50.886;6.468;2023-12-04T05:39:58;-0.10;99.90
27306;DHT22;14792;50.886;6.468;2023-12-04T05:43:00;-0.10;99.90
27306;DHT22;14792;50.886;6.468;2023-12-04T05:46:01;-0.10;99.90
27306;DHT22;14792;50.886;6.468;2023-12-04T05:49:03;-0.10;99.90
27306;DHT22;14792;50.886;6.468;2023-12-04T05:52:05;-0.10;99.90
27306;DHT22;14792;50.886;6.468;2023-12-04T05:55:06;-0.10;99.90
27306;DHT22;14792;50.886;6.468;2023-12-04T05:58:08;-0.10;99.90
27306;DHT22;14792;50.886;6.468;2023-12-04T06:01:09;-0.10;99.90
27306;DHT22;14792;50.886;6.468;2023-12-04T06:04:11;0.00;99.90
27306;DHT22;14792;50.886;6.468;2023-12-04T06:07:14;0.00;99.90
27306;DHT22;14792;50.886;6.468;2023-12-04T06:10:15;0.00;99.90
27306;DHT22;14792;50.886;6.468;2023-12-04T06:13:19;0.00;99.90
27306;DHT22;14792;50.886;6.468;2023-12-04T06:16:18;0.00;99.90
27306;DHT22;14792;50.886;6.468;2023-12-04T06:19:20;-0.10;99.90
27306;DHT22;14792;50.886;6.468;2023-12-04T06:22:21;0.00;99.90
27306;DHT22;14792;50.886;6.468;2023-12-04T06:25:23;-0.10;99.90
27306;DHT22;14792;50.886;6.468;2023-12-04T06:28:24;-0.10;99.90
27306;DHT22;14792;50.886;6.468;2023-12-04T06:31:26;0.00;99.90
27306;DHT22;14792;50.886;6.468;2023-12-04T06:34:28;-0.10;99.90
27306;DHT22;14792;50.886;6.468;2023-12-04T06:37:29;0.00;99.90
27306;DHT22;14792;50.886;6.468;2023-12-04T06:40:31;0.00;99.90
27306;DHT22;14792;50.886;6.468;2023-12-04T06:43:32;0.00;99.90
27306;DHT22;14792;50.886;6.468;2023-12-04T06:46:36;0.00;99.90
27306;DHT22;14792;50.886;6.468;2023-12-04T06:49:35;0.00;99.90
27306;DHT22;14792;50.886;6.468;2023-12-04T06:52:37;0.00;99.90
27306;DHT22;14792;50.886;6.468;2023-12-04T06:55:39;0.00;99.90
27306;DHT22;14792;50.886;6.468;2023-12-04T06:58:40;0.00;99.90
27306;DHT22;14792;50.886;6.468;2023-12-04T07:01:42;0.10;99.90
27306;DHT22;14792;50.886;6.468;2023-12-04T07:04:43;0.10;99.90
27306;DHT22;14792;50.886;6.468;2023-12-04T07:07:45;0.10;99.90
27306;DHT22;14792;50.886;6.468;2023-12-04T07:10:47;0.20;99.90
27306;DHT22;14792;50.886;6.468;2023-12-04T07:13:48;0.20;99.90
27306;DHT22;14792;50.886;6.468;2023-12-04T07:16:50;0.20;99.90
27306;DHT22;14792;50.886;6.468;2023-12-04T07:19:51;0.20;99.90
27306;DHT22;14792;50.886;6.468;2023-12-04T07:22:53;0.10;99.90
27306;DHT22;14792;50.886;6.468;2023-12-04T07:25:55;0.20;99.90
27306;DHT22;14792;50.886;6.468;2023-12-04T07:28:56;0.20;99.90
27306;DHT22;14792;50.886;6.468;2023-12-04T07:31:58;0.10;99.90
27306;DHT22;14792;50.886;6.468;2023-12-04T07:34:59;0.10;99.90
27306;DHT22;14792;50.886;6.468;2023-12-04T07:38:01;0.10;99.90
27306;DHT22;14792;50.886;6.468;2023-12-04T07:41:02;0.10;99.90
27306;DHT22;14792;50.886;6.468;2023-12-04T07:44:04;0.10;99.90
27306;DHT22;14792;50.886;6.468;2023-12-04T07:47:06;0.10;99.90
27306;DHT22;14792;50.886;6.468;2023-12-04T07:50:07;0.10;99.90
27306;DHT22;14792;50.886;6.468;2023-12-04T07:53:09;0.10;99.90
27306;DHT22;14792;50.886;6.468;2023-12-04T07:56:11;0.10;99.90
27306;DHT22;14792;50.886;6.468;2023-12-04T07:59:12;0.10;99.90
27306;DHT22;14792;50.886;6.468;2023-12-04T08:02:14;0.20;99.90
27306;DHT22;14792;50.886;6.468;2023-12-04T08:05:15;0.20;99.90
27306;DHT22;14792;50.886;6.468;2023-12-04T08:08:17;0.20;99.90
27306;DHT22;14792;50.886;6.468;2023-12-04T08:11:18;0.20;99.90
27306;DHT22;14792;50.886;6.468;2023-12-04T08:14:20;0.20;99.90
27306;DHT22;14792;50.886;6.468;2023-12-04T08:17:21;0.30;99.90
27306;DHT22;14792;50.886;6.468;2023-12-04T08:20:23;0.30;99.90
27306;DHT22;14792;50.886;6.468;2023-12-04T08:23:25;0.30;99.90
27306;DHT22;14792;50.886;6.468;2023-12-04T08:26:26;0.30;99.90
27306;DHT22;14792;50.886;6.468;2023-12-04T08:29:28;0.40;99.90
27306;DHT22;14792;50.886;6.468;2023-12-04T08:32:29;0.40;99.90
27306;DHT22;14792;50.886;6.468;2023-12-04T08:35:31;0.40;99.90
27306;DHT22;14792;50.886;6.468;2023-12-04T08:38:33;0.50;99.90
27306;DHT22;14792;50.886;6.468;2023-12-04T08:41:34;0.50;99.90
27306;DHT22;14792;50.886;6.468;2023-12-04T08:44:36;0.50;99.90
27306;DHT22;14792;50.886;6.468;2023-12-04T08:47:37;0.50;99.90
27306;DHT22;14792;50.886;6.468;2023-12-04T08:50:39;0.50;99.90
27306;DHT22;14792;50.886;6.468;2023-12-04T08:53:41;0.60;99.90
27306;DHT22;14792;50.886;6.468;2023-12-04T08:56:44;0.60;99.90
27306;DHT22;14792;50.886;6.468;2023-12-04T08:59:45;0.60;99.90
27306;DHT22;14792;50.886;6.468;2023-12-04T09:02:47;0.60;99.90
27306;DHT22;14792;50.886;6.468;2023-12-04T09:05:49;0.60;99.90
27306;DHT22;14792;50.886;6.468;2023-12-04T09:08:50;0.70;99.90
27306;DHT22;14792;50.886;6.468;2023-12-04T09:11:52;0.70;99.90
27306;DHT22;14792;50.886;6.468;2023-12-04T09:14:53;0.70;99.90
27306;DHT22;14792;50.886;6.468;2023-12-04T09:17:55;0.70;99.90
27306;DHT22;14792;50.886;6.468;2023-12-04T09:20:56;0.70;99.90
27306;DHT22;14792;50.886;6.468;2023-12-04T09:23:58;0.70;99.90
27306;DHT22;14792;50.886;6.468;2023-12-04T09:27:00;0.80;99.90
27306;DHT22;14792;50.886;6.468;2023-12-04T09:30:01;0.80;99.90
27306;DHT22;14792;50.886;6.468;2023-12-04T09:33:03;0.80;99.90
27306;DHT22;14792;50.886;6.468;2023-12-04T09:36:04;0.90;99.90
27306;DHT22;14792;50.886;6.468;2023-12-04T09:39:06;0.90;99.90
27306;DHT22;14792;50.886;6.468;2023-12-04T09:42:08;0.90;99.90
27306;DHT22;14792;50.886;6.468;2023-12-04T09:45:09;0.90;99.90
27306;DHT22;14792;50.886;6.468;2023-12-04T09:48:11;0.90;99.90
27306;DHT22;14792;50.886;6.468;2023-12-04T09:51:12;1.00;99.90
27306;DHT22;14792;50.886;6.468;2023-12-04T09:54:14;1.00;99.90
27306;DHT22;14792;50.886;6.468;2023-12-04T09:57:16;1.00;99.90
27306;DHT22;14792;50.886;6.468;2023-12-04T10:00:17;1.00;99.90
27306;DHT22;14792;50.886;6.468;2023-12-04T10:03:19;1.00;99.90
27306;DHT22;14792;50.886;6.468;2023-12-04T10:06:20;1.00;99.90
27306;DHT22;14792;50.886;6.468;2023-12-04T10:09:22;1.00;99.90
27306;DHT22;14792;50.886;6.468;2023-12-04T10:12:24;1.10;99.90
27306;DHT22;14792;50.886;6.468;2023-12-04T10:15:25;1.10;99.90
27306;DHT22;14792;50.886;6.468;2023-12-04T10:18:27;1.10;99.90
27306;DHT22;14792;50.886;6.468;2023-12-04T10:21:34;1.10;99.90
27306;DHT22;14792;50.886;6.468;2023-12-04T10:24:37;1.10;99.90
27306;DHT22;14792;50.886;6.468;2023-12-04T10:27:37;1.20;99.90
27306;DHT22;14792;50.886;6.468;2023-12-04T10:30:39;1.20;99.90
27306;DHT22;14792;50.886;6.468;2023-12-04T10:33:41;1.20;99.90
27306;DHT22;14792;50.886;6.468;2023-12-04T10:36:42;1.30;99.90
27306;DHT22;14792;50.886;6.468;2023-12-04T10:39:50;1.30;99.90
27306;DHT22;14792;50.886;6.468;2023-12-04T10:42:51;1.40;99.90
27306;DHT22;14792;50.886;6.468;2023-12-04T10:45:52;1.50;99.90
27306;DHT22;14792;50.886;6.468;2023-12-04T10:48:54;1.50;99.90
27306;DHT22;14792;50.886;6.468;2023-12-04T10:51:55;1.50;99.90
27306;DHT22;14792;50.886;6.468;2023-12-04T10:54:57;1.60;99.90
27306;DHT22;14792;50.886;6.468;2023-12-04T10:58:01;1.60;99.90
27306;DHT22;14792;50.886;6.468;2023-12-04T11:01:03;1.70;99.90
27306;DHT22;14792;50.886;6.468;2023-12-04T11:04:04;2.00;99.90
27306;DHT22;14792;50.886;6.468;2023-12-04T11:07:06;2.20;99.90
27306;DHT22;14792;50.886;6.468;2023-12-04T11:10:07;2.20;99.90
27306;DHT22;14792;50.886;6.468;2023-12-04T11:13:10;2.20;99.90
27306;DHT22;14792;50.886;6.468;2023-12-04T11:16:37;2.10;99.90
27306;DHT22;14792;50.886;6.468;2023-12-04T11:22:55;2.00;99.90
27306;DHT22;14792;50.886;6.468;2023-12-04T11:25:57;1.90;99.90
27306;DHT22;14792;50.886;6.468;2023-12-04T11:28:58;1.90;99.90
27306;DHT22;14792;50.886;6.468;2023-12-04T11:32:00;1.80;99.90
27306;DHT22;14792;50.886;6.468;2023-12-04T11:35:02;1.90;99.90
27306;DHT22;14792;50.886;6.468;2023-12-04T11:38:04;1.80;99.90
27306;DHT22;14792;50.886;6.468;2023-12-04T11:41:20;1.70;99.90
27306;DHT22;14792;50.886;6.468;2023-12-04T11:44:21;1.60;99.90
27306;DHT22;14792;50.886;6.468;2023-12-04T11:47:23;1.60;99.90
27306;DHT22;14792;50.886;6.468;2023-12-04T11:50:24;1.60;99.90
27306;DHT22;14792;50.886;6.468;2023-12-04T11:53:26;1.60;99.90
27306;DHT22;14792;50.886;6.468;2023-12-04T11:56:27;1.60;99.90
27306;DHT22;14792;50.886;6.468;2023-12-04T11:59:30;1.60;99.90
27306;DHT22;14792;50.886;6.468;2023-12-04T12:02:31;1.60;99.90
27306;DHT22;14792;50.886;6.468;2023-12-04T12:05:33;1.60;99.90
27306;DHT22;14792;50.886;6.468;2023-12-04T12:08:34;1.60;99.90
27306;DHT22;14792;50.886;6.468;2023-12-04T12:11:35;1.50;99.90
27306;DHT22;14792;50.886;6.468;2023-12-04T12:14:37;1.50;99.90
27306;DHT22;14792;50.886;6.468;2023-12-04T12:17:39;1.50;99.90
27306;DHT22;14792;50.886;6.468;2023-12-04T12:20:40;1.50;99.90
27306;DHT22;14792;50.886;6.468;2023-12-04T12:23:42;1.50;99.90
27306;DHT22;14792;50.886;6.468;2023-12-04T12:26:43;1.50;99.90
27306;DHT22;14792;50.886;6.468;2023-12-04T12:29:45;1.50;99.90
27306;DHT22;14792;50.886;6.468;2023-12-04T12:32:47;1.60;99.90
27306;DHT22;14792;50.886;6.468;2023-12-04T12:35:48;1.60;99.90
27306;DHT22;14792;50.886;6.468;2023-12-04T12:38:50;1.70;99.90
27306;DHT22;14792;50.886;6.468;2023-12-04T12:41:51;1.70;99.90
27306;DHT22;14792;50.886;6.468;2023-12-04T12:44:53;1.60;99.90
27306;DHT22;14792;50.886;6.468;2023-12-04T12:47:54;1.70;99.90
27306;DHT22;14792;50.886;6.468;2023-12-04T12:50:56;1.80;99.90
27306;DHT22;14792;50.886;6.468;2023-12-04T12:53:58;1.90;99.90
27306;DHT22;14792;50.886;6.468;2023-12-04T12:57:00;2.00;99.90
27306;DHT22;14792;50.886;6.468;2023-12-04T13:00:01;1.90;99.90
27306;DHT22;14792;50.886;6.468;2023-12-04T13:03:03;2.00;99.90
27306;DHT22;14792;50.886;6.468;2023-12-04T13:10:01;1.80;99.90
27306;DHT22;14792;50.886;6.468;2023-12-04T13:13:03;1.70;99.90
27306;DHT22;14792;50.886;6.468;2023-12-04T13:16:04;1.70;99.90
27306;DHT22;14792;50.886;6.468;2023-12-04T13:19:06;1.70;99.90
27306;DHT22;14792;50.886;6.468;2023-12-04T13:22:07;1.60;99.90
27306;DHT22;14792;50.886;6.468;2023-12-04T13:25:09;1.60;99.90
27306;DHT22;14792;50.886;6.468;2023-12-04T13:28:11;1.60;99.90
27306;DHT22;14792;50.886;6.468;2023-12-04T13:31:12;1.60;99.90
27306;DHT22;14792;50.886;6.468;2023-12-04T13:34:14;1.60;99.90
27306;DHT22;14792;50.886;6.468;2023-12-04T13:37:15;1.60;99.90
27306;DHT22;14792;50.886;6.468;2023-12-04T13:40:17;1.60;99.90
27306;DHT22;14792;50.886;6.468;2023-12-04T13:43:19;1.50;99.90
27306;DHT22;14792;50.886;6.468;2023-12-04T13:46:38;1.50;99.90
27306;DHT22;14792;50.886;6.468;2023-12-04T13:49:40;1.50;99.90
27306;DHT22;14792;50.886;6.468;2023-12-04T13:52:41;1.50;99.90
27306;DHT22;14792;50.886;6.468;2023-12-04T13:55:43;1.50;99.90
27306;DHT22;14792;50.886;6.468;2023-12-04T13:58:59;1.50;99.90
27306;DHT22;14792;50.886;6.468;2023-12-04T14:02:01;1.50;99.90
27306;DHT22;14792;50.886;6.468;2023-12-04T14:05:02;1.40;99.90
27306;DHT22;14792;50.886;6.468;2023-12-04T14:08:04;1.50;99.90
27306;DHT22;14792;50.886;6.468;2023-12-04T14:11:06;1.50;99.90
27306;DHT22;14792;50.886;6.468;2023-12-04T14:14:07;1.50;99.90
27306;DHT22;14792;50.886;6.468;2023-12-04T14:17:09;1.50;99.90
27306;DHT22;14792;50.886;6.468;2023-12-04T14:20:10;1.50;99.90
27306;DHT22;14792;50.886;6.468;2023-12-04T14:23:12;1.50;99.90
27306;DHT22;14792;50.886;6.468;2023-12-04T14:26:14;1.50;99.90
27306;DHT22;14792;50.886;6.468;2023-12-04T14:29:15;1.40;99.90
27306;DHT22;14792;50.886;6.468;2023-12-04T14:32:17;1.40;99.90
27306;DHT22;14792;50.886;6.468;2023-12-04T14:35:18;1.40;99.90
27306;DHT22;14792;50.886;6.468;2023-12-04T14:38:20;1.40;99.90
27306;DHT22;14792;50.886;6.468;2023-12-04T14:41:22;1.40;99.90
27306;DHT22;14792;50.886;6.468;2023-12-04T14:44:23;1.40;99.90
27306;DHT22;14792;50.886;6.468;2023-12-04T14:47:25;1.40;99.90
27306;DHT22;14792;50.886;6.468;2023-12-04T14:50:26;1.40;99.90
27306;DHT22;14792;50.886;6.468;2023-12-04T14:53:28;1.30;99.90
27306;DHT22;14792;50.886;6.468;2023-12-04T14:56:29;1.30;99.90
27306;DHT22;14792;50.886;6.468;2023-12-04T14:59:37;1.20;99.90
27306;DHT22;14792;50.886;6.468;2023-12-04T15:02:41;1.20;99.90
27306;DHT22;14792;50.886;6.468;2023-12-04T15:05:46;1.20;99.90
27306;DHT22;14792;50.886;6.468;2023-12-04T15:08:59;1.20;99.90
27306;DHT22;14792;50.886;6.468;2023-12-04T15:12:19;1.20;99.90
27306;DHT22;14792;50.886;6.468;2023-12-04T15:15:23;1.20;99.90
27306;DHT22;14792;50.886;6.468;2023-12-04T15:18:42;1.20;99.90
27306;DHT22;14792;50.886;6.468;2023-12-04T15:22:02;1.20;99.90
27306;DHT22;14792;50.886;6.468;2023-12-04T15:25:06;1.10;99.90
27306;DHT22;14792;50.886;6.468;2023-12-04T15:28:08;1.10;99.90
27306;DHT22;14792;50.886;6.468;2023-12-04T15:31:09;1.10;99.90
27306;DHT22;14792;50.886;6.468;2023-12-04T15:34:11;1.10;99.90
27306;DHT22;14792;50.886;6.468;2023-12-04T15:37:13;1.10;99.90
27306;DHT22;14792;50.886;6.468;2023-12-04T15:40:15;1.20;99.90
27306;DHT22;14792;50.886;6.468;2023-12-04T15:43:17;1.10;99.90
27306;DHT22;14792;50.886;6.468;2023-12-04T15:46:19;1.10;99.90
27306;DHT22;14792;50.886;6.468;2023-12-04T15:49:20;1.10;99.90
27306;DHT22;14792;50.886;6.468;2023-12-04T15:52:22;1.10;99.90
27306;DHT22;14792;50.886;6.468;2023-12-04T15:55:23;1.10;99.90
27306;DHT22;14792;50.886;6.468;2023-12-04T15:58:25;1.10;99.90
27306;DHT22;14792;50.886;6.468;2023-12-04T16:01:27;1.10;99.90
27306;DHT22;14792;50.886;6.468;2023-12-04T16:04:28;1.10;99.90
27306;DHT22;14792;50.886;6.468;2023-12-04T16:07:30;1.20;99.90
27306;DHT22;14792;50.886;6.468;2023-12-04T16:10:31;1.10;99.90
27306;DHT22;14792;50.886;6.468;2023-12-04T16:13:33;1.20;99.90
27306;DHT22;14792;50.886;6.468;2023-12-04T16:16:36;1.20;99.90
27306;DHT22;14792;50.886;6.468;2023-12-04T16:19:36;1.10;99.90
27306;DHT22;14792;50.886;6.468;2023-12-04T16:22:41;1.20;99.90
27306;DHT22;14792;50.886;6.468;2023-12-04T16:25:39;1.10;99.90
27306;DHT22;14792;50.886;6.468;2023-12-04T16:28:41;1.10;99.90
27306;DHT22;14792;50.886;6.468;2023-12-04T16:31:42;1.10;99.90
27306;DHT22;14792;50.886;6.468;2023-12-04T16:34:44;1.10;99.90
27306;DHT22;14792;50.886;6.468;2023-12-04T16:37:46;1.10;99.90
27306;DHT22;14792;50.886;6.468;2023-12-04T16:40:47;1.10;99.90
27306;DHT22;14792;50.886;6.468;2023-12-04T16:43:49;1.10;99.90
27306;DHT22;14792;50.886;6.468;2023-12-04T16:46:50;1.10;99.90
27306;DHT22;14792;50.886;6.468;2023-12-04T16:49:52;1.10;99.90
27306;DHT22;14792;50.886;6.468;2023-12-04T16:52:54;1.10;99.90
27306;DHT22;14792;50.886;6.468;2023-12-04T16:55:55;1.10;99.90
27306;DHT22;14792;50.886;6.468;2023-12-04T16:58:57;1.10;99.90
27306;DHT22;14792;50.886;6.468;2023-12-04T17:01:58;1.10;99.90
27306;DHT22;14792;50.886;6.468;2023-12-04T17:05:00;1.10;99.90
27306;DHT22;14792;50.886;6.468;2023-12-04T17:08:01;1.20;99.90
27306;DHT22;14792;50.886;6.468;2023-12-04T17:11:03;1.10;99.90
27306;DHT22;14792;50.886;6.468;2023-12-04T17:14:05;1.10;99.90
27306;DHT22;14792;50.886;6.468;2023-12-04T17:17:06;1.10;99.90
27306;DHT22;14792;50.886;6.468;2023-12-04T17:20:08;1.10;99.90
27306;DHT22;14792;50.886;6.468;2023-12-04T17:23:09;1.10;99.90
27306;DHT22;14792;50.886;6.468;2023-12-04T17:26:11;1.20;99.90
27306;DHT22;14792;50.886;6.468;2023-12-04T17:29:13;1.10;99.90
27306;DHT22;14792;50.886;6.468;2023-12-04T17:32:14;1.10;99.90
27306;DHT22;14792;50.886;6.468;2023-12-04T17:35:16;1.10;99.90
27306;DHT22;14792;50.886;6.468;2023-12-04T17:38:18;1.10;99.90
27306;DHT22;14792;50.886;6.468;2023-12-04T17:41:19;1.10;99.90
27306;DHT22;14792;50.886;6.468;2023-12-04T17:44:21;1.10;99.90
27306;DHT22;14792;50.886;6.468;2023-12-04T17:47:22;1.20;99.90
27306;DHT22;14792;50.886;6.468;2023-12-04T17:50:24;1.10;99.90
27306;DHT22;14792;50.886;6.468;2023-12-04T17:53:25;1.10;99.90
27306;DHT22;14792;50.886;6.468;2023-12-04T17:56:27;1.20;99.90
27306;DHT22;14792;50.886;6.468;2023-12-04T17:59:29;1.20;99.90
27306;DHT22;14792;50.886;6.468;2023-12-04T18:02:30;1.20;99.90
27306;DHT22;14792;50.886;6.468;2023-12-04T18:05:32;1.20;99.90
27306;DHT22;14792;50.886;6.468;2023-12-04T18:08:33;1.10;99.90
27306;DHT22;14792;50.886;6.468;2023-12-04T18:11:35;1.10;99.90
27306;DHT22;14792;50.886;6.468;2023-12-04T18:14:37;1.10;99.90
27306;DHT22;14792;50.886;6.468;2023-12-04T18:17:38;1.10;99.90
27306;DHT22;14792;50.886;6.468;2023-12-04T18:20:42;1.10;99.90
27306;DHT22;14792;50.886;6.468;2023-12-04T18:23:44;1.20;99.90
27306;DHT22;14792;50.886;6.468;2023-12-04T18:26:46;1.20;99.90
27306;DHT22;14792;50.886;6.468;2023-12-04T18:29:47;1.20;99.90
27306;DHT22;14792;50.886;6.468;2023-12-04T18:32:49;1.20;99.90
27306;DHT22;14792;50.886;6.468;2023-12-04T18:35:50;1.30;99.90
27306;DHT22;14792;50.886;6.468;2023-12-04T18:38:53;1.20;99.90
27306;DHT22;14792;50.886;6.468;2023-12-04T18:41:53;1.20;99.90
27306;DHT22;14792;50.886;6.468;2023-12-04T18:44:55;1.20;99.90
27306;DHT22;14792;50.886;6.468;2023-12-04T18:48:00;1.30;99.90
27306;DHT22;14792;50.886;6.468;2023-12-04T18:51:01;1.20;99.90
27306;DHT22;14792;50.886;6.468;2023-12-04T18:54:02;1.30;99.90
27306;DHT22;14792;50.886;6.468;2023-12-04T18:57:04;1.30;99.90
27306;DHT22;14792;50.886;6.468;2023-12-04T19:00:06;1.30;99.90
27306;DHT22;14792;50.886;6.468;2023-12-04T19:03:07;1.30;99.90
27306;DHT22;14792;50.886;6.468;2023-12-04T19:10:06;1.30;99.90
27306;DHT22;14792;50.886;6.468;2023-12-04T19:13:08;1.30;99.90
27306;DHT22;14792;50.886;6.468;2023-12-04T19:16:12;1.30;99.90
27306;DHT22;14792;50.886;6.468;2023-12-04T19:19:14;1.30;99.90
27306;DHT22;14792;50.886;6.468;2023-12-04T19:22:15;1.40;99.90
27306;DHT22;14792;50.886;6.468;2023-12-04T19:25:17;1.40;99.90
27306;DHT22;14792;50.886;6.468;2023-12-04T19:28:18;1.40;99.90
27306;DHT22;14792;50.886;6.468;2023-12-04T19:31:20;1.40;99.90
27306;DHT22;14792;50.886;6.468;2023-12-04T19:34:22;1.40;99.90
27306;DHT22;14792;50.886;6.468;2023-12-04T19:37:23;1.40;99.90